createdAt,value
2018-10-06T00:04:43.646Z,11.49
2018-10-06T00:09:38.494Z,11.22
2018-10-06T00:14:33.337Z,11.12
2018-10-06T00:19:28.162Z,10.99
2018-10-06T00:24:22.990Z,11.00
2018-10-06T00:29:17.854Z,10.99
2018-10-06T00:34:12.749Z,10.94
2018-10-06T00:39:08.386Z,11.12
2018-10-06T00:44:03.205Z,11.24
2018-10-06T00:48:58.021Z,11.34
2018-10-06T00:53:52.870Z,11.32
2018-10-06T00:58:47.644Z,11.37
2018-10-06T01:03:42.470Z,11.32
2018-10-06T01:08:37.800Z,11.18
2018-10-06T01:13:33.496Z,11.20
2018-10-06T01:18:28.249Z,11.23
2018-10-06T01:23:23.085Z,11.32
2018-10-06T01:28:17.879Z,11.26
2018-10-06T01:33:12.722Z,11.39
2018-10-06T01:38:07.556Z,11.49
2018-10-06T01:43:05.307Z,11.58
2018-10-06T01:48:00.157Z,11.48
2018-10-06T01:52:54.998Z,11.46
2018-10-06T01:57:49.850Z,11.41
2018-10-06T02:02:44.666Z,11.38
2018-10-06T02:07:39.495Z,11.49
2018-10-06T02:12:34.364Z,11.54
2018-10-06T02:17:29.175Z,11.58
2018-10-06T02:22:24.559Z,11.69
2018-10-06T02:27:19.373Z,11.73
2018-10-06T02:32:14.305Z,11.79
2018-10-06T02:37:09.271Z,11.80
2018-10-06T02:42:04.236Z,11.74
2018-10-06T02:46:59.126Z,11.76
2018-10-06T02:51:54.061Z,11.74
2018-10-06T02:56:48.893Z,11.70
2018-10-06T03:01:43.780Z,11.77
2018-10-06T03:06:38.655Z,11.82
2018-10-06T03:11:33.606Z,11.86
2018-10-06T03:16:28.474Z,11.96
2018-10-06T03:21:23.716Z,12.01
2018-10-06T03:26:18.724Z,11.90
2018-10-06T03:31:13.600Z,11.91
2018-10-06T03:36:08.645Z,11.95
2018-10-06T03:41:03.518Z,12.03
2018-10-06T03:45:58.414Z,12.12
2018-10-06T03:50:53.318Z,12.14
2018-10-06T03:55:48.123Z,12.13
2018-10-06T04:00:42.991Z,12.09
2018-10-06T04:05:37.842Z,12.11
2018-10-06T04:10:32.633Z,12.11
2018-10-06T04:15:27.525Z,12.05
2018-10-06T04:20:22.380Z,12.09
2018-10-06T04:25:17.240Z,12.10
2018-10-06T04:30:12.125Z,12.12
2018-10-06T04:35:07.004Z,12.14
2018-10-06T04:40:01.800Z,12.10
2018-10-06T04:44:56.654Z,12.09
2018-10-06T04:49:51.462Z,12.09
2018-10-06T04:54:46.431Z,12.13
2018-10-06T04:59:41.317Z,12.06
2018-10-06T05:04:36.209Z,12.04
2018-10-06T05:09:31.681Z,12.05
2018-10-06T05:14:33.136Z,12.08
2018-10-06T05:19:27.943Z,12.03
2018-10-06T05:24:22.798Z,11.96
2018-10-06T05:29:18.585Z,11.91
2018-10-06T05:34:13.558Z,11.85
2018-10-06T05:39:10.728Z,11.85
2018-10-06T05:44:05.626Z,11.90
2018-10-06T05:49:00.491Z,11.83
2018-10-06T05:53:55.624Z,11.87
2018-10-06T05:58:50.541Z,11.86
2018-10-06T06:03:45.410Z,11.89
2018-10-06T06:08:40.266Z,11.95
2018-10-06T06:13:35.122Z,12.08
2018-10-06T06:18:29.938Z,12.16
2018-10-06T06:23:24.811Z,12.23
2018-10-06T06:28:19.688Z,12.27
2018-10-06T06:33:14.529Z,12.29
2018-10-06T06:38:09.369Z,12.35
2018-10-06T06:43:04.326Z,12.34
2018-10-06T06:48:01.081Z,12.32
2018-10-06T06:52:55.935Z,12.42
2018-10-06T06:57:50.739Z,12.44
2018-10-06T07:02:45.562Z,12.53
2018-10-06T07:07:40.387Z,12.54
2018-10-06T07:12:35.248Z,12.69
2018-10-06T07:17:30.051Z,12.73
2018-10-06T07:22:24.918Z,12.78
2018-10-06T07:27:19.765Z,12.76
2018-10-06T07:32:15.148Z,12.82
2018-10-06T07:37:10.141Z,13.20
2018-10-06T07:42:05.097Z,13.34
2018-10-06T07:46:59.909Z,13.35
2018-10-06T07:51:54.818Z,13.46
2018-10-06T07:56:49.672Z,13.50
2018-10-06T08:01:44.451Z,13.67
2018-10-06T08:06:39.342Z,13.60
2018-10-06T08:11:34.243Z,13.58
2018-10-06T08:16:29.028Z,13.76
2018-10-06T08:21:23.867Z,13.89
2018-10-06T08:26:18.726Z,13.89
2018-10-06T08:31:13.539Z,14.22
2018-10-06T08:36:08.381Z,14.25
2018-10-06T08:41:03.182Z,14.23
2018-10-06T08:45:58.097Z,14.17
2018-10-06T08:50:52.964Z,14.21
2018-10-06T08:55:47.804Z,14.68
2018-10-06T09:00:42.833Z,15.39
2018-10-06T09:05:37.658Z,15.65
2018-10-06T09:10:32.627Z,15.69
2018-10-06T09:15:27.507Z,15.39
2018-10-06T09:20:22.318Z,15.59
2018-10-06T09:25:17.287Z,15.96
2018-10-06T09:30:12.185Z,16.30
2018-10-06T09:35:07.145Z,16.15
2018-10-06T09:40:01.967Z,16.06
2018-10-06T09:44:56.821Z,16.10
2018-10-06T09:49:51.656Z,16.37
2018-10-06T09:54:46.548Z,16.59
2018-10-06T09:59:41.378Z,16.82
2018-10-06T10:04:36.243Z,17.19
2018-10-06T10:09:31.078Z,17.34
2018-10-06T10:14:25.834Z,17.48
2018-10-06T10:19:20.677Z,17.55
2018-10-06T10:24:15.475Z,17.74
2018-10-06T10:29:10.306Z,17.61
2018-10-06T10:34:05.127Z,17.32
2018-10-06T10:38:59.923Z,17.33
2018-10-06T10:43:54.821Z,17.57
2018-10-06T10:48:49.740Z,17.76
2018-10-06T10:53:44.569Z,17.79
2018-10-06T10:58:39.394Z,17.96
2018-10-06T11:03:34.244Z,18.23
2018-10-06T11:08:29.106Z,17.99
2018-10-06T11:13:24.009Z,17.69
2018-10-06T11:18:18.890Z,17.41
2018-10-06T11:23:13.701Z,17.42
2018-10-06T11:28:09.263Z,17.60
2018-10-06T11:33:04.141Z,17.52
2018-10-06T11:37:58.970Z,17.39
2018-10-06T11:42:53.854Z,17.52
2018-10-06T11:47:49.204Z,17.51
2018-10-06T11:52:44.036Z,17.63
2018-10-06T11:57:38.866Z,17.77
2018-10-06T12:02:34.022Z,18.21
2018-10-06T12:07:28.925Z,18.36
2018-10-06T12:12:24.281Z,18.12
2018-10-06T12:17:19.096Z,18.10
2018-10-06T12:22:13.985Z,17.88
2018-10-06T12:27:08.839Z,17.63
2018-10-06T12:32:03.677Z,17.70
2018-10-06T12:36:58.541Z,17.82
2018-10-06T12:41:53.574Z,17.85
2018-10-06T12:46:48.410Z,17.94
2018-10-06T12:51:43.294Z,17.94
2018-10-06T12:56:38.264Z,17.94
2018-10-06T13:01:33.127Z,17.99
2018-10-06T13:06:27.964Z,17.98
2018-10-06T13:11:22.822Z,18.01
2018-10-06T13:16:17.694Z,17.94
2018-10-06T13:21:12.521Z,17.67
2018-10-06T13:26:07.389Z,17.56
2018-10-06T13:31:02.168Z,17.57
2018-10-06T13:35:56.953Z,17.71
2018-10-06T13:40:51.879Z,17.89
2018-10-06T13:45:46.753Z,17.83
2018-10-06T13:50:41.585Z,17.63
2018-10-06T13:55:37.111Z,17.53
2018-10-06T14:00:32.033Z,17.66
2018-10-06T14:05:26.897Z,17.73
2018-10-06T14:10:21.734Z,17.59
2018-10-06T14:15:16.574Z,17.35
2018-10-06T14:20:11.396Z,17.18
2018-10-06T14:25:06.274Z,17.11
2018-10-06T14:30:01.087Z,17.29
2018-10-06T14:34:55.981Z,17.59
2018-10-06T14:39:50.842Z,17.89
2018-10-06T14:44:45.689Z,18.08
2018-10-06T14:49:40.504Z,18.13
2018-10-06T14:54:35.395Z,18.11
2018-10-06T14:59:30.238Z,18.06
2018-10-06T15:04:25.142Z,17.93
2018-10-06T15:09:20.132Z,17.89
2018-10-06T15:14:14.957Z,17.78
2018-10-06T15:19:09.761Z,17.74
2018-10-06T15:24:04.625Z,17.75
2018-10-06T15:28:59.885Z,17.74
2018-10-06T15:33:54.722Z,17.67
2018-10-06T15:38:49.552Z,17.44
2018-10-06T15:43:44.441Z,17.35
2018-10-06T15:48:39.693Z,17.23
2018-10-06T15:53:34.858Z,17.09
2018-10-06T15:58:29.699Z,17.00
2018-10-06T16:03:24.520Z,16.93
2018-10-06T16:08:19.358Z,16.83
2018-10-06T16:13:14.191Z,16.77
2018-10-06T16:18:09.102Z,16.82
2018-10-06T16:23:03.995Z,16.72
2018-10-06T16:27:58.852Z,16.62
2018-10-06T16:32:53.778Z,16.49
2018-10-06T16:37:48.692Z,16.40
2018-10-06T16:42:44.501Z,16.32
2018-10-06T16:47:39.388Z,16.24
2018-10-06T16:52:34.253Z,16.17
2018-10-06T16:57:29.135Z,16.06
2018-10-06T17:02:23.989Z,15.92
2018-10-06T17:07:18.865Z,15.89
2018-10-06T17:12:13.754Z,15.85
2018-10-06T17:17:08.628Z,15.76
2018-10-06T17:22:03.587Z,15.69
2018-10-06T17:26:58.549Z,15.62
2018-10-06T17:31:53.429Z,15.57
2018-10-06T17:36:48.338Z,15.48
2018-10-06T17:41:43.228Z,15.23
2018-10-06T17:46:38.093Z,15.23
2018-10-06T17:51:32.934Z,15.12
2018-10-06T17:56:27.781Z,15.14
2018-10-06T18:01:25.122Z,15.08
2018-10-06T18:06:20.007Z,15.07
2018-10-06T18:11:15.434Z,15.01
2018-10-06T18:16:10.286Z,14.99
2018-10-06T18:21:06.734Z,14.84
2018-10-06T18:26:02.546Z,14.73
2018-10-06T18:30:57.357Z,14.84
2018-10-06T18:35:52.330Z,14.76
2018-10-06T18:40:47.198Z,14.63
2018-10-06T18:45:42.041Z,14.64
2018-10-06T18:50:36.996Z,14.66
2018-10-06T18:55:31.808Z,14.65
2018-10-06T19:00:26.748Z,14.62
2018-10-06T19:05:21.623Z,14.53
2018-10-06T19:10:16.559Z,14.47
2018-10-06T19:15:11.394Z,14.14
2018-10-06T19:20:06.709Z,14.24
2018-10-06T19:25:01.581Z,14.01
2018-10-06T19:29:56.486Z,14.12
2018-10-06T19:34:51.422Z,14.15
2018-10-06T19:39:46.370Z,14.05
2018-10-06T19:44:41.253Z,14.09
2018-10-06T19:49:37.939Z,14.05
2018-10-06T19:54:32.819Z,13.80
2018-10-06T19:59:27.687Z,13.92
2018-10-06T20:04:22.658Z,13.80
2018-10-06T20:09:17.976Z,13.84
2018-10-06T20:14:12.998Z,14.01
2018-10-06T20:19:07.942Z,14.06
2018-10-06T20:24:03.117Z,14.04
2018-10-06T20:28:58.028Z,14.12
2018-10-06T20:33:52.938Z,14.08
2018-10-06T20:38:47.927Z,13.96
2018-10-06T20:43:42.772Z,14.03
2018-10-06T20:48:37.622Z,14.13
2018-10-06T20:53:32.779Z,14.15
2018-10-06T20:58:27.646Z,14.16
2018-10-06T21:03:22.482Z,14.23
2018-10-06T21:08:17.423Z,14.25
2018-10-06T21:13:12.275Z,14.15
2018-10-06T21:18:07.179Z,14.15
2018-10-06T21:25:33.953Z,14.19
2018-10-06T21:30:29.076Z,14.24
2018-10-06T21:35:24.192Z,14.29
2018-10-06T21:40:19.183Z,14.20
2018-10-06T21:45:14.196Z,14.19
2018-10-06T21:50:09.162Z,14.09
2018-10-06T21:55:04.069Z,13.94
2018-10-06T21:59:58.994Z,13.98
2018-10-06T22:04:53.898Z,14.03
2018-10-06T22:09:48.776Z,14.01
2018-10-06T22:14:43.704Z,14.04
2018-10-06T22:19:38.568Z,13.96
2018-10-06T22:24:33.416Z,14.01
2018-10-06T22:29:28.362Z,14.06
2018-10-06T22:34:23.199Z,14.12
2018-10-06T22:39:18.003Z,14.13
2018-10-06T22:44:12.904Z,14.15
2018-10-06T22:49:07.732Z,14.19
2018-10-06T22:54:02.543Z,14.23
2018-10-06T22:58:57.350Z,14.16
2018-10-06T23:03:52.281Z,14.14
2018-10-06T23:08:47.104Z,14.03
2018-10-06T23:13:41.959Z,14.07
2018-10-06T23:18:36.844Z,14.03
2018-10-06T23:23:31.667Z,14.05
2018-10-06T23:28:26.495Z,14.03
2018-10-06T23:33:21.337Z,13.87
2018-10-06T23:38:16.162Z,13.82
2018-10-06T23:43:11.036Z,13.78
2018-10-06T23:48:05.869Z,13.71
2018-10-06T23:53:00.676Z,13.75
2018-10-06T23:57:56.009Z,13.81
